Time;durP1;ratioP1;P1;durP2;ratioP2;P2;SDS_P1;SDS_P2;PMS_P1;PMS_P2;Temp;Humidity;BMP_temperature;BMP_pressure;BME280_temperature;BME280_humidity;BME280_pressure;Samples;Min_cycle;Max_cycle;Signal;HPM_P1;HPM_P2
2021/10/14 00:00:12;;;;;;;35.70;20.30;;;;;;;5.02;69.38;99443.52;113335;1193;99021;-72
2021/10/14 00:02:59;;;;;;;39.00;21.30;;;;;;;5.04;69.35;99439.39;113395;1193;98908;-72
2021/10/14 00:05:34;;;;;;;36.40;19.70;;;;;;;5.05;69.33;99435.64;113361;1193;112989;-71
2021/10/14 00:08:06;;;;;;;38.30;20.60;;;;;;;5.09;69.35;99435.64;113395;1193;98774;-70
2021/10/14 00:10:34;;;;;;;36.00;19.90;;;;;;;5.11;69.31;99435.57;113400;1193;107546;-72
2021/10/14 00:13:02;;;;;;;35.90;19.50;;;;;;;5.13;69.47;99435.84;113536;1194;98966;-72
2021/10/14 00:15:36;;;;;;;37.20;20.00;;;;;;;5.15;69.37;99438.71;113379;1193;99066;-71
2021/10/14 00:18:04;;;;;;;36.40;19.20;;;;;;;5.17;69.59;99438.64;113501;1193;112611;-71
2021/10/14 00:20:37;;;;;;;38.00;20.00;;;;;;;5.20;69.55;99436.95;113408;1193;98995;-70
2021/10/14 00:23:05;;;;;;;35.90;19.60;;;;;;;5.24;69.57;99436.07;113316;1193;107562;-71
2021/10/14 00:25:33;;;;;;;38.70;21.40;;;;;;;5.26;69.57;99435.80;113346;1193;99015;-71
2021/10/14 00:28:00;;;;;;;39.50;21.30;;;;;;;5.29;69.76;99434.44;113404;1193;98875;-72
2021/10/14 00:30:30;;;;;;;36.60;19.80;;;;;;;5.33;69.71;99436.19;113395;1193;112524;-72
2021/10/14 00:32:58;;;;;;;40.10;20.50;;;;;;;5.36;69.69;99434.46;113338;1193;99004;-73
2021/10/14 00:35:26;;;;;;;35.50;19.10;;;;;;;5.39;69.64;99433.30;113401;1193;107631;-71
2021/10/14 00:37:54;;;;;;;38.30;20.20;;;;;;;5.42;69.83;99431.91;113422;1193;98926;-71
2021/10/14 00:40:29;;;;;;;36.30;20.20;;;;;;;5.46;69.81;99429.29;113322;1193;99033;-71
2021/10/14 00:42:57;;;;;;;38.30;20.30;;;;;;;5.49;69.93;99422.80;113369;1193;112523;-72
2021/10/14 00:45:24;;;;;;;36.90;21.00;;;;;;;5.52;69.87;99426.88;113397;1193;96400;-72
2021/10/14 00:47:52;;;;;;;34.30;19.10;;;;;;;5.55;70.13;99428.14;113388;1193;107584;-71
2021/10/14 00:50:20;;;;;;;36.00;19.40;;;;;;;5.57;69.90;99429.83;113427;1193;99037;-71
2021/10/14 00:52:52;;;;;;;36.60;19.40;;;;;;;5.59;69.97;99430.25;113357;1193;98976;-72
2021/10/14 00:55:27;;;;;;;39.20;19.50;;;;;;;5.60;69.92;99426.86;113357;1193;112502;-72
2021/10/14 00:57:55;;;;;;;;;;;;;;;5.63;69.97;99432.54;113420;1193;96395;-72
2021/10/14 01:00:23;;;;;;;34.00;18.10;;;;;;;5.64;69.93;99431.08;113422;1193;107799;-71
2021/10/14 01:02:51;;;;;;;37.10;19.20;;;;;;;5.66;70.14;99431.52;113365;1193;98290;-71
2021/10/14 01:05:20;;;;;;;35.70;19.00;;;;;;;5.69;70.22;99433.67;113423;1193;97491;-69
2021/10/14 01:07:48;;;;;;;37.60;20.10;;;;;;;5.71;70.20;99433.59;113312;1193;112475;-72
2021/10/14 01:10:15;;;;;;;34.00;18.70;;;;;;;5.72;70.23;99436.69;113470;1193;98976;-72
2021/10/14 01:12:45;;;;;;;34.80;19.90;;;;;;;5.74;70.19;99439.92;113364;1193;107484;-73
2021/10/14 01:15:24;;;;;;;36.00;20.10;;;;;;;5.77;70.17;99435.23;113479;1193;97641;-71
2021/10/14 01:17:57;;;;;;;35.10;19.10;;;;;;;5.79;70.38;99436.02;113376;1193;98884;-71
2021/10/14 01:20:29;;;;;;;34.40;19.50;;;;;;;5.80;70.54;99437.52;113335;1193;112587;-71
2021/10/14 01:22:58;;;;;;;39.00;20.50;;;;;;;5.83;70.55;99439.37;113427;1193;99650;-71
2021/10/14 01:25:26;;;;;;;36.50;20.70;;;;;;;5.85;70.45;99445.63;113316;1193;107207;-72
2021/10/14 01:27:54;;;;;;;36.60;20.20;;;;;;;5.85;70.27;99441.73;113278;1193;99029;-71
2021/10/14 01:30:22;;;;;;;38.90;22.00;;;;;;;5.86;70.39;99441.31;113411;1193;98683;-72
2021/10/14 01:32:54;;;;;;;36.90;20.50;;;;;;;5.90;70.46;99446.98;113422;1193;112686;-72
2021/10/14 01:35:21;;;;;;;37.00;20.90;;;;;;;5.92;70.60;99445.43;113370;1193;98886;-72
2021/10/14 01:37:49;;;;;;;39.80;22.30;;;;;;;5.93;70.32;99446.26;113389;1193;107502;-72
2021/10/14 01:40:25;;;;;;;38.20;22.30;;;;;;;5.98;70.38;99446.73;111831;1209;635410;-72
2021/10/14 01:42:52;;;;;;;43.60;23.60;;;;;;;5.98;70.47;99444.81;113349;1196;93993;-72
2021/10/14 01:45:20;;;;;;;37.60;21.20;;;;;;;5.98;70.57;99447.79;114047;1195;93487;-71
2021/10/14 01:47:48;;;;;;;42.10;23.40;;;;;;;5.99;70.59;99443.89;113380;1195;107024;-72
2021/10/14 01:50:16;;;;;;;42.50;23.40;;;;;;;5.99;70.56;99451.13;113357;1195;93999;-72
2021/10/14 01:52:44;;;;;;;39.30;21.90;;;;;;;5.99;70.56;99447.58;113339;1195;107532;-73
2021/10/14 01:55:12;;;;;;;42.90;23.70;;;;;;;6.00;70.45;99448.95;113394;1196;93936;-72
2021/10/14 01:57:39;;;;;;;39.70;23.20;;;;;;;6.00;70.69;99446.14;113372;1195;93931;-72
2021/10/14 02:00:11;;;;;;;38.10;22.40;;;;;;;6.03;70.77;99446.92;113406;1196;107063;-73
2021/10/14 02:02:38;;;;;;;41.70;22.90;;;;;;;6.03;70.79;99445.67;113202;1196;93960;-75
2021/10/14 02:05:08;;;;;;;37.50;22.90;;;;;;;6.02;70.76;99446.07;113393;1195;107457;-71
2021/10/14 02:07:36;;;;;;;36.70;20.60;;;;;;;6.01;70.65;99449.98;113911;1195;94941;-69
2021/10/14 02:10:06;;;;;;;41.30;23.20;;;;;;;6.00;70.73;99446.16;113286;1196;93934;-71
2021/10/14 02:12:39;;;;;;;40.00;22.80;;;;;;;5.99;70.70;99443.91;113415;1195;107582;-73
2021/10/14 02:15:07;;;;;;;40.30;22.30;;;;;;;5.99;70.83;99443.89;113323;1196;93904;-72
2021/10/14 02:17:35;;;;;;;39.70;23.20;;;;;;;5.99;70.78;99446.87;113435;1196;107493;-71
2021/10/14 02:20:03;;;;;;;41.30;21.80;;;;;;;5.99;70.85;99449.54;113393;1196;94879;-72
2021/10/14 02:22:31;;;;;;;39.00;22.30;;;;;;;5.99;70.79;99448.48;113366;1195;94834;-71
2021/10/14 02:24:58;;;;;;;36.80;21.40;;;;;;;5.98;70.59;99450.11;113403;1196;108577;-72
2021/10/14 02:27:26;;;;;;;37.40;23.20;;;;;;;5.98;70.72;99453.10;114061;1195;93983;-72
2021/10/14 02:29:54;;;;;;;40.40;23.50;;;;;;;5.97;70.93;99451.89;113362;1195;107618;-71
2021/10/14 02:32:22;;;;;;;40.00;23.70;;;;;;;5.98;70.75;99455.89;113374;1195;94994;-71
2021/10/14 02:34:50;;;;;;;37.70;22.20;;;;;;;5.99;70.85;99453.23;113379;1196;95279;-71
2021/10/14 02:37:18;;;;;;;40.80;23.30;;;;;;;5.98;70.83;99452.55;114050;1195;107396;-72
2021/10/14 02:39:46;;;;;;;38.20;22.60;;;;;;;5.98;70.91;99453.60;113847;1195;95285;-72
2021/10/14 02:42:14;;;;;;;40.50;23.40;;;;;;;5.98;71.03;99453.43;113352;1195;107288;-71
2021/10/14 02:44:42;;;;;;;42.60;25.10;;;;;;;5.99;70.98;99457.10;113340;1196;95008;-71
2021/10/14 02:47:11;;;;;;;44.60;23.90;;;;;;;6.00;71.03;99459.88;113276;1196;94924;-71
2021/10/14 02:49:39;;;;;;;46.20;27.30;;;;;;;6.02;71.05;99461.41;113305;1195;108903;-72
2021/10/14 02:52:06;;;;;;;42.40;24.30;;;;;;;6.02;70.73;99459.95;113860;1193;95255;-72
2021/10/14 02:54:39;;;;;;;44.90;24.20;;;;;;;6.00;70.78;99458.30;113983;1192;107467;-71
2021/10/14 02:57:07;;;;;;;41.30;23.50;;;;;;;5.99;70.89;99463.61;113914;1192;95056;-73
2021/10/14 02:59:35;;;;;;;42.30;25.10;;;;;;;6.00;70.99;99466.21;113973;1192;94649;-70
2021/10/14 03:02:08;;;;;;;39.10;22.90;;;;;;;6.02;71.21;99469.31;114007;1192;108462;-73
2021/10/14 03:04:36;;;;;;;45.10;25.70;;;;;;;6.03;71.06;99469.42;113784;1193;94926;-71
2021/10/14 03:07:04;;;;;;;42.30;25.20;;;;;;;6.04;71.00;99473.98;113761;1193;107477;-71
2021/10/14 03:09:32;;;;;;;44.10;25.60;;;;;;;6.03;71.14;99475.93;113790;1193;94816;-72
2021/10/14 03:11:59;;;;;;;39.60;24.20;;;;;;;6.02;71.11;99480.02;113900;1192;94916;-71
2021/10/14 03:14:27;;;;;;;44.10;25.40;;;;;;;6.01;71.01;99483.09;113582;1197;108902;-70
2021/10/14 03:16:55;;;;;;;43.40;25.40;;;;;;;6.00;71.03;99485.23;113741;1193;94911;-70
2021/10/14 03:19:23;;;;;;;44.80;25.60;;;;;;;5.99;71.05;99487.73;113591;1187;107519;-71
2021/10/14 03:21:51;;;;;;;41.20;24.20;;;;;;;5.99;71.00;99485.98;113681;1192;94123;-70
2021/10/14 03:24:18;;;;;;;47.10;26.10;;;;;;;5.99;71.23;99490.38;113660;1192;94840;-71
2021/10/14 03:26:46;;;;;;;38.60;24.20;;;;;;;5.99;71.26;99485.08;113539;1192;108582;-70
2021/10/14 03:29:14;;;;;;;41.10;24.40;;;;;;;5.99;71.07;99480.69;113583;1193;94801;-71
2021/10/14 03:31:42;;;;;;;44.20;24.60;;;;;;;5.97;71.05;99482.71;113645;1193;108037;-72
2021/10/14 03:34:10;;;;;;;44.20;24.20;;;;;;;5.96;71.14;99484.65;113659;1193;94881;-73
2021/10/14 03:36:37;;;;;;;42.80;25.10;;;;;;;5.95;71.29;99485.61;113679;1193;94913;-72
2021/10/14 03:39:05;;;;;;;38.70;23.40;;;;;;;5.95;71.27;99488.58;113650;1193;108426;-72
2021/10/14 03:41:33;;;;;;;46.30;25.50;;;;;;;5.97;71.43;99493.09;113551;1193;93923;-71
2021/10/14 03:44:01;;;;;;;45.40;25.00;;;;;;;5.97;71.21;99496.98;113594;1193;107121;-71
2021/10/14 03:46:29;;;;;;;40.50;25.40;;;;;;;5.96;71.08;99498.77;113720;1183;94833;-70
2021/10/14 03:49:00;;;;;;;41.40;24.40;;;;;;;5.94;71.15;99503.80;113660;1193;94190;-71
2021/10/14 03:51:28;;;;;;;39.90;23.40;;;;;;;5.91;71.25;99506.20;113698;1193;108213;-71
2021/10/14 03:53:56;;;;;;;39.40;22.60;;;;;;;5.90;71.20;99510.84;113389;1193;95716;-72
2021/10/14 03:56:28;;;;;;;43.10;24.00;;;;;;;5.82;71.30;99508.90;113704;1193;107485;-71
2021/10/14 03:58:56;;;;;;;39.70;22.50;;;;;;;5.58;71.74;99510.38;113658;1192;93991;-71
2021/10/14 04:01:23;;;;;;;41.10;22.10;;;;;;;5.29;71.66;99513.73;114248;1192;94933;-71
2021/10/14 04:03:52;;;;;;;43.80;24.30;;;;;;;5.07;71.85;99519.23;113531;1193;108437;-71
2021/10/14 04:06:19;;;;;;;44.10;24.50;;;;;;;4.95;72.19;99522.90;113587;1193;94322;-72
2021/10/14 04:08:47;;;;;;;45.60;24.90;;;;;;;4.86;72.32;99523.83;113748;1193;107506;-70
2021/10/14 04:11:20;;;;;;;43.30;25.00;;;;;;;4.77;72.72;99522.08;113661;1193;94874;-71
2021/10/14 04:13:47;;;;;;;45.70;26.20;;;;;;;4.70;72.38;99525.70;113531;1193;93981;-70
2021/10/14 04:16:15;;;;;;;47.30;25.70;;;;;;;4.67;72.62;99521.78;113731;1192;108272;-71
2021/10/14 04:18:43;;;;;;;39.90;23.60;;;;;;;4.64;72.66;99526.15;113713;1193;94933;-71
2021/10/14 04:21:11;;;;;;;42.70;25.40;;;;;;;4.60;72.90;99522.08;113562;1193;107762;-70
2021/10/14 04:23:43;;;;;;;46.60;25.20;;;;;;;4.52;72.98;99527.30;113714;1193;94871;-70
2021/10/14 04:26:11;;;;;;;42.40;24.40;;;;;;;4.47;73.39;99535.43;113738;1193;94005;-71
2021/10/14 04:28:44;;;;;;;41.10;23.50;;;;;;;4.40;73.37;99534.95;113745;1192;108406;-72
2021/10/14 04:31:14;;;;;;;45.90;27.30;;;;;;;4.36;73.50;99534.25;113796;1193;94873;-72
2021/10/14 04:33:45;;;;;;;48.10;27.40;;;;;;;4.33;73.33;99538.41;113436;1193;108452;-71
2021/10/14 04:36:13;;;;;;;49.60;27.30;;;;;;;4.31;73.19;99542.00;113452;1193;94957;-72
2021/10/14 04:38:41;;;;;;;43.20;26.20;;;;;;;4.35;73.24;99545.38;113791;1193;94862;-72
2021/10/14 04:41:09;;;;;;;44.80;24.50;;;;;;;4.39;73.26;99545.59;113739;1193;107852;-72
2021/10/14 04:43:36;;;;;;;44.10;26.60;;;;;;;4.44;73.30;99550.47;113627;1193;94859;-72
2021/10/14 04:46:07;;;;;;;46.60;27.00;;;;;;;4.50;73.19;99555.13;113749;1193;107478;-70
2021/10/14 04:48:35;;;;;;;46.30;27.10;;;;;;;4.58;73.11;99557.10;113764;1193;93902;-69
2021/10/14 04:51:03;;;;;;;45.70;26.60;;;;;;;4.66;73.19;99559.08;113769;1192;94996;-70
2021/10/14 04:53:31;;;;;;;45.70;28.70;;;;;;;4.72;73.18;99558.11;113821;1192;108420;-71
2021/10/14 04:55:59;;;;;;;51.40;28.60;;;;;;;4.80;73.37;99560.08;113799;1192;95353;-71
2021/10/14 04:58:26;;;;;;;48.10;28.20;;;;;;;4.87;73.51;99562.80;113752;1193;107413;-72
2021/10/14 05:00:55;;;;;;;55.80;31.00;;;;;;;4.95;73.44;99563.88;113726;1193;93894;-67
2021/10/14 05:03:28;;;;;;;50.20;29.90;;;;;;;5.01;73.62;99563.08;113645;1193;94900;-72
2021/10/14 05:05:56;;;;;;;48.60;29.60;;;;;;;5.08;73.51;99567.02;113553;1193;108374;-71
2021/10/14 05:08:23;;;;;;;49.50;29.30;;;;;;;5.15;73.45;99573.25;113774;1192;93997;-72
2021/10/14 05:10:51;;;;;;;51.70;31.20;;;;;;;5.20;73.54;99572.30;113762;1193;107597;-71
2021/10/14 05:13:22;;;;;;;50.90;30.40;;;;;;;5.27;73.48;99576.80;113750;1192;93998;-71
2021/10/14 05:15:50;;;;;;;54.80;32.60;;;;;;;5.31;73.40;99576.76;113730;1192;94922;-69
2021/10/14 05:18:18;;;;;;;54.30;33.00;;;;;;;5.37;73.58;99580.94;113625;1193;108425;-71
2021/10/14 05:20:45;;;;;;;52.90;32.10;;;;;;;5.42;73.46;99583.70;113467;1193;94841;-71
2021/10/14 05:23:13;;;;;;;55.50;33.00;;;;;;;5.46;73.47;99586.87;113780;1193;107331;-71
2021/10/14 05:25:46;;;;;;;41.20;25.10;;;;;;;5.48;73.53;99588.20;113757;1193;94838;-72
2021/10/14 05:28:15;;;;;;;56.60;35.70;;;;;;;5.48;73.55;99593.11;113634;1193;93969;-71
2021/10/14 05:30:43;;;;;;;58.30;35.30;;;;;;;5.50;73.53;99594.41;113686;1184;108432;-71
2021/10/14 05:33:15;;;;;;;55.40;35.00;;;;;;;5.53;73.41;99599.58;113755;1193;93899;-71
2021/10/14 05:35:46;;;;;;;64.00;39.10;;;;;;;5.54;73.36;99599.73;113472;1193;107584;-71
2021/10/14 05:38:19;;;;;;;59.60;35.00;;;;;;;5.55;73.26;99603.20;113796;1193;94850;-71
2021/10/14 05:40:48;;;;;;;62.90;36.00;;;;;;;5.57;73.26;99607.68;113791;1193;93900;-72
2021/10/14 05:43:16;;;;;;;56.40;36.40;;;;;;;5.59;73.37;99608.99;113666;1193;108514;-72
2021/10/14 05:45:44;;;;;;;53.20;31.70;;;;;;;5.60;73.39;99610.38;113657;1193;94827;-70
2021/10/14 05:48:12;;;;;;;57.80;36.10;;;;;;;5.61;73.55;99616.31;113686;1193;107548;-72
2021/10/14 05:50:39;;;;;;;62.60;36.60;;;;;;;5.61;73.29;99617.55;113771;1193;96114;-72
2021/10/14 05:53:07;;;;;;;61.10;36.70;;;;;;;5.62;73.31;99621.19;113742;1193;96273;-72
2021/10/14 05:55:40;;;;;;;55.40;35.00;;;;;;;5.66;73.42;99624.21;113722;1193;109612;-72
2021/10/14 05:58:13;;;;;;;54.30;33.80;;;;;;;5.66;73.43;99619.25;113471;1193;93948;-72
2021/10/14 06:00:41;;;;;;;60.70;34.00;;;;;;;5.69;73.29;99626.02;113615;1193;106483;-72
2021/10/14 06:03:10;;;;;;;56.30;33.90;;;;;;;5.70;73.26;99628.43;113410;1194;95263;-72
2021/10/14 06:05:43;;;;;;;53.20;32.60;;;;;;;5.72;73.41;99626.20;113774;1193;96193;-72
2021/10/14 06:08:10;;;;;;;58.50;36.10;;;;;;;5.72;73.29;99631.12;113850;1192;109765;-72
2021/10/14 06:10:38;;;;;;;61.60;35.70;;;;;;;5.74;73.44;99631.94;113957;1193;96880;-72
2021/10/14 06:13:06;;;;;;;56.40;34.60;;;;;;;5.77;73.26;99635.86;113798;1193;107625;-72
2021/10/14 06:15:39;;;;;;;58.70;35.40;;;;;;;5.81;73.43;99628.82;113431;1193;96644;-73
2021/10/14 06:18:08;;;;;;;56.60;33.40;;;;;;;5.82;73.27;99632.84;113450;1193;96322;-77
2021/10/14 06:20:36;;;;;;;62.10;36.20;;;;;;;5.82;73.37;99637.39;113395;1193;109844;-73
2021/10/14 06:23:05;;;;;;;60.40;36.50;;;;;;;5.83;73.37;99637.73;113654;1193;96190;-73
2021/10/14 06:25:35;;;;;;;56.80;35.10;;;;;;;5.85;73.32;99639.75;113593;1193;107478;-74
2021/10/14 06:28:04;;;;;;;57.20;32.60;;;;;;;5.87;73.24;99640.86;113814;1192;96890;-72
2021/10/14 06:30:35;;;;;;;55.90;32.70;;;;;;;5.89;73.33;99639.76;113554;1193;96333;-72
2021/10/14 06:33:03;;;;;;;55.70;32.60;;;;;;;5.93;73.40;99641.48;113582;1193;109732;-70
2021/10/14 06:35:31;;;;;;;53.20;31.60;;;;;;;5.98;73.27;99647.44;113844;1193;93908;-73
2021/10/14 06:37:59;;;;;;;55.80;34.30;;;;;;;5.98;73.31;99646.21;113913;1193;107492;-70
2021/10/14 06:40:31;;;;;;;57.30;35.30;;;;;;;5.98;73.46;99645.30;113439;1193;96168;-71
2021/10/14 06:42:59;;;;;;;50.70;30.40;;;;;;;6.01;73.40;99648.06;113946;1192;96207;-70
2021/10/14 06:45:27;;;;;;;54.20;30.70;;;;;;;6.03;73.26;99649.20;114414;1192;109868;-72
2021/10/14 06:47:55;;;;;;;49.90;29.70;;;;;;;6.04;73.33;99653.92;113976;1192;96190;-70
2021/10/14 06:50:23;;;;;;;49.30;30.40;;;;;;;6.08;73.56;99653.38;113732;1192;107476;-70
2021/10/14 06:52:54;;;;;;;49.70;29.40;;;;;;;6.09;73.46;99657.55;113779;1193;96889;-70
2021/10/14 06:55:25;;;;;;;49.20;30.00;;;;;;;6.08;73.39;99658.28;113835;1192;94864;-71
2021/10/14 06:57:57;;;;;;;46.80;28.80;;;;;;;6.08;73.27;99661.09;113880;1193;108556;-66
2021/10/14 07:00:25;;;;;;;49.60;27.10;;;;;;;6.08;73.32;99663.94;113903;1193;96592;-68
2021/10/14 07:02:53;;;;;;;45.30;27.00;;;;;;;6.07;73.14;99662.74;113852;1193;108922;-67
2021/10/14 07:05:21;;;;;;;47.60;28.80;;;;;;;6.05;73.31;99666.34;113778;1193;96180;-69
2021/10/14 07:07:49;;;;;;;44.40;28.90;;;;;;;6.05;73.31;99668.63;113787;1192;94540;-71
2021/10/14 07:10:17;;;;;;;48.60;29.40;;;;;;;6.01;73.42;99672.85;113794;1192;109805;-70
2021/10/14 07:12:46;;;;;;;47.70;29.00;;;;;;;5.92;73.42;99674.98;113842;1193;96332;-68
2021/10/14 07:15:14;;;;;;;46.00;28.20;;;;;;;5.86;73.52;99668.58;113228;1193;107145;-70
2021/10/14 07:17:42;;;;;;;45.40;27.20;;;;;;;5.81;73.29;99667.52;113708;1192;94796;-69
2021/10/14 07:20:10;;;;;;;49.40;31.20;;;;;;;5.81;73.45;99668.40;113944;1192;96183;-68
2021/10/14 07:22:38;;;;;;;56.50;36.00;;;;;;;5.82;73.31;99672.61;113835;1193;110377;-68
2021/10/14 07:25:07;;;;;;;53.50;32.90;;;;;;;5.83;73.28;99676.60;113852;1192;96180;-69
2021/10/14 07:27:35;;;;;;;51.50;31.30;;;;;;;5.81;73.39;99677.21;113848;1192;108105;-72
2021/10/14 07:30:07;;;;;;;58.80;34.30;;;;;;;5.79;73.49;99678.16;113852;1192;96186;-70
2021/10/14 07:32:36;;;;;;;55.90;34.10;;;;;;;5.79;73.33;99681.34;113456;1193;93911;-69
2021/10/14 07:35:06;;;;;;;60.10;37.10;;;;;;;5.83;73.40;99677.50;113396;1193;110027;-69
2021/10/14 07:37:34;;;;;;;62.00;36.10;;;;;;;5.84;73.53;99676.23;113944;1192;94750;-69
2021/10/14 07:40:04;;;;;;;59.60;36.20;;;;;;;5.82;73.49;99678.92;113881;1192;107436;-69
2021/10/14 07:42:35;;;;;;;57.10;35.60;;;;;;;5.82;73.42;99678.61;113889;1192;96327;-69
2021/10/14 07:45:06;;;;;;;61.90;39.30;;;;;;;5.84;73.68;99679.75;113872;1196;96264;-70
2021/10/14 07:47:34;;;;;;;58.30;36.30;;;;;;;5.85;73.44;99679.52;113915;1193;109792;-69
2021/10/14 07:50:04;;;;;;;59.10;34.60;;;;;;;5.90;73.40;99678.59;113924;1193;93983;-69
2021/10/14 07:52:32;;;;;;;54.60;31.40;;;;;;;5.98;73.45;99678.27;113863;1193;107518;-69
2021/10/14 07:55:06;;;;;;;51.00;31.60;;;;;;;6.07;73.63;99677.52;113723;1193;96129;-69
2021/10/14 07:57:34;;;;;;;48.70;29.40;;;;;;;6.15;73.42;99678.77;113775;1193;93929;-70
2021/10/14 08:00:06;;;;;;;55.50;29.70;;;;;;;6.27;73.53;99680.37;113421;1195;109906;-69
2021/10/14 08:02:34;;;;;;;51.40;30.70;;;;;;;6.41;73.45;99685.02;113764;1187;94447;-69
2021/10/14 08:05:04;;;;;;;50.00;28.90;;;;;;;6.44;73.40;99685.55;113731;1192;108388;-69
2021/10/14 08:07:33;;;;;;;52.30;30.80;;;;;;;6.50;73.44;99688.66;113708;1192;96223;-67
2021/10/14 08:10:03;;;;;;;46.40;26.70;;;;;;;6.54;73.42;99691.08;113931;1193;94004;-68
2021/10/14 08:12:31;;;;;;;50.30;27.50;;;;;;;6.56;73.23;99692.77;113920;1192;110837;-69
2021/10/14 08:14:59;;;;;;;49.70;28.30;;;;;;;6.56;73.21;99690.67;113928;1193;93746;-70
2021/10/14 08:17:27;;;;;;;52.10;30.20;;;;;;;6.59;73.23;99690.69;113846;1193;108123;-70
2021/10/14 08:19:55;;;;;;;48.40;28.50;;;;;;;6.62;73.41;99688.09;113363;1193;94367;-69
2021/10/14 08:22:26;;;;;;;49.90;28.10;;;;;;;6.61;73.24;99688.19;113901;1192;96159;-73
2021/10/14 08:24:57;;;;;;;51.50;28.40;;;;;;;6.66;73.28;99687.02;113867;1193;108456;-69
2021/10/14 08:27:26;;;;;;;52.10;29.00;;;;;;;6.73;73.36;99687.58;113813;1193;96287;-71
2021/10/14 08:29:53;;;;;;;47.20;27.10;;;;;;;6.80;73.45;99692.21;113894;1193;107582;-69
2021/10/14 08:32:21;;;;;;;46.60;25.80;;;;;;;6.86;73.34;99686.83;113347;1192;96928;-71
2021/10/14 08:34:49;;;;;;;44.60;25.40;;;;;;;6.90;73.30;99685.22;113917;1193;96204;-69
2021/10/14 08:37:23;;;;;;;46.50;26.40;;;;;;;6.95;73.22;99688.34;113300;1193;109845;-69
2021/10/14 08:39:53;;;;;;;42.70;24.00;;;;;;;7.09;73.31;99680.24;113618;1193;94860;-70
2021/10/14 08:42:21;;;;;;;40.20;23.10;;;;;;;7.25;73.15;99682.13;113716;1193;107515;-70
2021/10/14 08:44:51;;;;;;;40.60;21.00;;;;;;;7.38;73.09;99682.88;113804;1193;96204;-70
2021/10/14 08:47:19;;;;;;;33.60;19.60;;;;;;;7.63;73.18;99677.76;113390;1193;96284;-70
2021/10/14 08:49:48;;;;;;;36.30;19.90;;;;;;;7.87;73.18;99677.98;113782;1193;109876;-69
2021/10/14 08:52:17;;;;;;;36.80;20.40;;;;;;;7.98;73.08;99678.83;113749;1193;96271;-70
2021/10/14 08:54:46;;;;;;;34.50;19.60;;;;;;;8.03;73.16;99682.27;113886;1193;107453;-69
2021/10/14 08:57:13;;;;;;;35.90;19.40;;;;;;;8.22;73.19;99676.33;113915;1193;96212;-69
2021/10/14 08:59:41;;;;;;;36.40;19.60;;;;;;;8.48;73.30;99677.46;113900;1193;96286;-70
2021/10/14 09:02:14;;;;;;;36.70;20.60;;;;;;;8.89;73.26;99673.42;113752;1177;110320;-69
2021/10/14 09:04:54;;;;;;;38.90;21.10;;;;;;;9.37;73.30;99674.45;113406;1193;96361;-69
2021/10/14 09:07:26;;;;;;;35.60;20.50;;;;;;;9.79;73.41;99667.05;113376;1193;108055;-67
2021/10/14 09:10:00;;;;;;;34.90;18.60;;;;;;;10.18;73.46;99662.07;113291;1193;96220;-68
2021/10/14 09:12:38;;;;;;;32.50;16.80;;;;;;;10.58;73.08;99666.16;113903;1192;96283;-69
2021/10/14 09:15:10;;;;;;;31.30;16.00;;;;;;;11.03;73.16;99661.21;113891;1193;109384;-70
2021/10/14 09:17:38;;;;;;;28.70;16.00;;;;;;;11.58;73.13;99660.95;113910;1193;93915;-69
2021/10/14 09:20:33;;;;;;;29.90;15.80;;;;;;;12.22;73.16;99659.80;113895;1193;108057;-70
2021/10/14 09:23:11;;;;;;;31.00;16.60;;;;;;;12.82;72.89;99658.83;113940;1192;96162;-69
2021/10/14 09:25:52;;;;;;;30.70;17.50;;;;;;;13.12;72.28;99660.88;113907;1192;96613;-69
2021/10/14 09:28:28;;;;;;;30.20;16.20;;;;;;;13.05;71.82;99664.95;113946;1193;109798;-70
2021/10/14 09:31:06;;;;;;;31.30;16.80;;;;;;;13.07;72.00;99663.23;113936;1192;93895;-69
2021/10/14 09:33:45;;;;;;;29.20;16.10;;;;;;;13.09;71.98;99664.11;113945;1193;107538;-70
2021/10/14 09:36:22;;;;;;;28.90;16.00;;;;;;;12.98;71.48;99668.70;113466;1193;96318;-68
2021/10/14 09:39:06;;;;;;;29.20;17.30;;;;;;;12.65;70.83;99669.82;113910;1193;96254;-69
2021/10/14 09:41:41;;;;;;;28.40;16.20;;;;;;;12.30;70.07;99667.98;113887;1193;109840;-70
2021/10/14 09:44:19;;;;;;;31.20;16.40;;;;;;;12.11;70.80;99665.80;113944;1193;96311;-71
2021/10/14 09:46:55;;;;;;;28.40;15.60;;;;;;;12.12;71.23;99672.79;113873;1192;107630;-69
2021/10/14 09:49:23;;;;;;;30.30;16.10;;;;;;;12.18;71.58;99670.06;113904;1192;96360;-69
2021/10/14 09:51:51;;;;;;;28.80;17.20;;;;;;;12.37;71.78;99667.67;113914;1192;96143;-68
2021/10/14 09:54:20;;;;;;;28.30;16.90;;;;;;;12.56;71.56;99672.20;113926;1192;109052;-69
2021/10/14 09:56:48;;;;;;;31.30;17.50;;;;;;;12.53;71.33;99672.24;113913;1193;96277;-70
2021/10/14 09:59:18;;;;;;;29.10;16.20;;;;;;;12.45;70.94;99671.38;113881;1193;107440;-69
2021/10/14 10:01:49;;;;;;;28.20;15.90;;;;;;;12.32;70.90;99670.30;113914;1193;96287;-69
2021/10/14 10:04:25;;;;;;;32.30;18.00;;;;;;;12.33;70.73;99672.91;113906;1193;96252;-70
2021/10/14 10:06:58;;;;;;;30.70;16.70;;;;;;;12.25;70.79;99663.71;113922;1192;110439;-69
2021/10/14 10:09:37;;;;;;;27.90;15.90;;;;;;;12.26;70.72;99668.80;113918;1193;93938;-69
2021/10/14 10:12:07;;;;;;;32.80;19.60;;;;;;;12.13;69.88;99667.20;113946;1194;107492;-67
2021/10/14 10:14:36;;;;;;;33.30;19.30;;;;;;;11.86;69.80;99670.29;113896;1192;96284;-68
2021/10/14 10:17:08;;;;;;;33.90;20.70;;;;;;;11.59;69.99;99669.80;113739;1193;96300;-69
2021/10/14 10:19:42;;;;;;;32.30;17.60;;;;;;;11.48;70.32;99670.14;113398;1192;110317;-67
2021/10/14 10:22:35;;;;;;;30.90;17.00;;;;;;;11.58;70.55;99670.40;113905;1193;94842;-69
2021/10/14 10:25:25;;;;;;;25.20;13.10;;;;;;;11.70;70.44;99663.37;113856;1193;108118;-70
2021/10/14 10:27:57;;;;;;;27.10;15.20;;;;;;;11.69;69.55;99672.50;113900;1192;94008;-69
2021/10/14 10:30:31;;;;;;;24.80;13.90;;;;;;;11.37;69.50;99675.50;113946;1193;96192;-70
2021/10/14 10:33:01;;;;;;;24.70;13.50;;;;;;;11.10;69.53;99679.54;113929;1192;109793;-69
2021/10/14 10:35:46;;;;;;;30.10;16.70;;;;;;;10.97;69.48;99679.36;114816;1192;96186;-69
2021/10/14 10:38:22;;;;;;;28.90;15.70;;;;;;;10.96;69.91;99674.98;113886;1193;107630;-70
2021/10/14 10:40:56;;;;;;;25.50;13.30;;;;;;;10.91;69.98;99672.45;113904;1192;96646;-70
2021/10/14 10:43:30;;;;;;;26.70;13.50;;;;;;;10.87;69.82;99674.29;113900;1192;97022;-69
2021/10/14 10:46:07;;;;;;;29.90;17.10;;;;;;;10.78;69.52;99674.52;113930;1193;109926;-69
2021/10/14 10:48:53;;;;;;;30.20;15.80;;;;;;;10.56;69.51;99674.98;113847;1193;96349;-69
2021/10/14 10:51:29;;;;;;;31.00;16.90;;;;;;;10.49;69.51;99676.52;113876;1192;107699;-69
2021/10/14 10:53:57;;;;;;;27.50;15.10;;;;;;;10.46;69.62;99676.48;113479;1193;96326;-69
2021/10/14 10:56:32;;;;;;;28.30;15.10;;;;;;;10.50;69.29;99674.67;113943;1193;96276;-69
2021/10/14 10:59:03;;;;;;;28.50;14.10;;;;;;;10.56;69.14;99668.62;113725;1193;108627;-70
2021/10/14 11:01:32;;;;;;;26.80;14.60;;;;;;;10.61;69.16;99664.59;113950;1193;96187;-70
2021/10/14 11:04:07;;;;;;;28.80;14.50;;;;;;;10.54;68.92;99666.80;113914;1192;108166;-72
2021/10/14 11:06:38;;;;;;;31.00;14.80;;;;;;;10.41;69.04;99665.83;113933;1192;96242;-70
2021/10/14 11:09:14;;;;;;;31.80;16.50;;;;;;;10.37;69.14;99661.98;113744;1194;96383;-71
2021/10/14 11:11:43;;;;;;;31.80;17.40;;;;;;;10.40;69.04;99659.48;113911;1192;110093;-69
2021/10/14 11:14:13;;;;;;;28.40;14.80;;;;;;;10.48;68.90;99657.22;113653;1193;96306;-69
2021/10/14 11:16:42;;;;;;;27.70;14.30;;;;;;;10.55;68.79;99651.82;113369;1193;107511;-69
2021/10/14 11:19:22;;;;;;;32.80;18.50;;;;;;;10.69;68.86;99649.14;113893;1193;96218;-72
2021/10/14 11:21:49;;;;;;;28.30;15.00;;;;;;;10.87;68.52;99659.02;113712;1193;96229;-68
2021/10/14 11:24:18;;;;;;;24.60;11.70;;;;;;;10.98;68.43;99660.14;113833;1193;109799;-69